KNJK

El Centro Naf Airport

El Centro, California, USA
METAR KNJK 201656Z 28006KT 10SM SCT200 27/05 A2997 RMK AO2 SLP163 T02720050 $
Observed Flight Rules
Oct-20 @ 16:56 UTC (28 minutes ago) Visual Flight Rules
Wind Visibility Clouds
280° at 6 knots 10 miles
  • Scattered at 20,000' AGL
Temperatures Readings
Current 27°C / 81°F
Dewpoint 5°C / 41°F
Humidity 24%
Altimeter 29.97" Hg
Pressure 1016.3 hPa
Elevation -13
METAR KNJK 201656Z 28006KT 10SM SCT200 27/05 A2997 RMK AO2 SLP163 T02720050 $
Observed Flight Rules
Oct-20 @ 16:56 UTC
(28 minutes ago)
VFR
Wind Visibility
280° at 6 knots 10 miles
Clouds
  • Scattered at 20,000' AGL
Temperature Dewpoint
27°C / 81°F 5°C / 41°F
Humidity Altimeter Pressure
24% 29.97" Hg 1016.3 hPa